createdAt,value
2022-09-15T00:01:23.420Z,4.25
2022-09-15T00:03:50.987Z,4.70
2022-09-15T00:06:18.225Z,4.90
2022-09-15T00:08:45.217Z,4.80
2022-09-15T00:11:27.508Z,4.78
2022-09-15T00:13:55.439Z,4.28
2022-09-15T00:16:25.542Z,4.18
2022-09-15T00:18:53.023Z,5.43
2022-09-15T00:21:24.498Z,4.53
2022-09-15T00:23:52.027Z,3.78
2022-09-15T00:26:21.462Z,4.20
2022-09-15T00:28:48.908Z,4.15
2022-09-15T00:31:19.429Z,4.40
2022-09-15T00:33:47.925Z,5.45
2022-09-15T00:36:15.694Z,6.55
2022-09-15T00:38:43.616Z,6.60
2022-09-15T00:41:12.590Z,6.80
2022-09-15T00:43:53.519Z,6.90
2022-09-15T00:46:27.924Z,6.80
2022-09-15T00:49:00.297Z,7.03
2022-09-15T00:51:46.033Z,6.60
2022-09-15T00:54:17.650Z,6.72
2022-09-15T00:56:46.888Z,6.40
2022-09-15T00:59:19.768Z,6.78
2022-09-15T01:01:49.909Z,5.87
2022-09-15T01:04:17.602Z,5.82
2022-09-15T01:06:48.313Z,5.40
2022-09-15T01:09:26.834Z,4.78
2022-09-15T01:11:53.826Z,4.50
2022-09-15T01:14:21.180Z,5.12
2022-09-15T01:17:09.716Z,3.97
2022-09-15T01:20:16.076Z,3.83
2022-09-15T01:22:53.035Z,3.30
2022-09-15T01:25:41.924Z,3.22
2022-09-15T01:28:29.595Z,1.77
2022-09-15T01:31:02.267Z,2.50
2022-09-15T01:33:52.344Z,2.30
2022-09-15T01:36:34.835Z,2.25
2022-09-15T01:39:13.457Z,2.28
2022-09-15T01:41:54.760Z,2.40
2022-09-15T01:44:25.256Z,2.03
2022-09-15T01:46:57.182Z,2.70
2022-09-15T01:49:26.982Z,2.55
2022-09-15T01:51:54.675Z,2.28
2022-09-15T01:54:33.494Z,2.30
2022-09-15T01:57:02.132Z,2.35
2022-09-15T01:59:29.671Z,2.22
2022-09-15T02:02:01.967Z,2.30
2022-09-15T02:04:49.561Z,1.90
2022-09-15T02:07:21.467Z,2.17
2022-09-15T02:10:00.824Z,1.90
2022-09-15T02:12:35.615Z,2.15
2022-09-15T02:15:08.676Z,2.05
2022-09-15T02:17:39.818Z,2.22
2022-09-15T02:20:39.052Z,1.73
2022-09-15T02:23:35.232Z,2.35
2022-09-15T02:26:06.883Z,1.90
2022-09-15T02:28:37.240Z,1.80
2022-09-15T02:31:07.401Z,1.87
2022-09-15T02:33:40.714Z,1.48
2022-09-15T02:36:11.017Z,1.90
2022-09-15T02:38:44.329Z,1.37
2022-09-15T02:41:13.274Z,1.50
2022-09-15T02:43:47.631Z,1.80
2022-09-15T02:46:20.294Z,1.40
2022-09-15T02:48:47.518Z,2.00
2022-09-15T02:51:17.011Z,1.80
2022-09-15T02:53:45.621Z,2.05
2022-09-15T02:56:12.891Z,1.80
2022-09-15T02:58:40.218Z,1.65
2022-09-15T03:01:08.044Z,1.70
2022-09-15T03:03:36.434Z,1.90
2022-09-15T03:06:17.637Z,2.03
2022-09-15T03:08:49.659Z,2.05
2022-09-15T03:11:19.304Z,1.67
2022-09-15T03:13:46.887Z,1.80
2022-09-15T03:16:15.288Z,1.65
2022-09-15T03:18:42.890Z,1.85
2022-09-15T03:21:13.221Z,1.90
2022-09-15T03:23:41.147Z,1.98
2022-09-15T03:26:09.444Z,2.00
2022-09-15T03:28:37.751Z,1.40
2022-09-15T03:31:06.453Z,1.50
2022-09-15T03:33:33.921Z,1.75
2022-09-15T03:36:01.491Z,1.90
2022-09-15T03:38:28.849Z,1.70
2022-09-15T03:41:04.120Z,1.87
2022-09-15T03:43:32.082Z,1.70
2022-09-15T03:46:00.075Z,1.83
2022-09-15T03:48:28.596Z,1.90
2022-09-15T03:50:55.722Z,1.50
2022-09-15T03:53:23.180Z,1.35
2022-09-15T03:55:50.327Z,1.23
2022-09-15T03:58:18.489Z,1.40
2022-09-15T04:00:46.657Z,1.50
2022-09-15T04:03:14.095Z,1.52
2022-09-15T04:05:41.984Z,1.42
2022-09-15T04:08:12.215Z,1.50
2022-09-15T04:10:40.809Z,1.67
2022-09-15T04:13:08.558Z,1.73
2022-09-15T04:15:36.083Z,1.30
2022-09-15T04:18:04.859Z,1.23
2022-09-15T04:20:31.988Z,1.65
2022-09-15T04:22:59.040Z,1.65
2022-09-15T04:25:27.844Z,1.90
2022-09-15T04:27:55.453Z,1.67
2022-09-15T04:30:22.687Z,1.83
2022-09-15T04:32:51.625Z,2.20
2022-09-15T04:35:18.789Z,2.28
2022-09-15T04:37:45.809Z,2.30
2022-09-15T04:40:13.229Z,2.53
2022-09-15T04:42:40.321Z,2.62
2022-09-15T04:45:07.771Z,4.18
2022-09-15T04:47:35.110Z,2.42
2022-09-15T04:50:02.159Z,3.20
2022-09-15T04:52:29.232Z,3.40
2022-09-15T04:54:59.092Z,3.20
2022-09-15T04:57:26.097Z,2.80
2022-09-15T04:59:53.068Z,3.35
2022-09-15T05:02:20.421Z,2.80
2022-09-15T05:04:48.994Z,3.20
2022-09-15T05:07:15.995Z,3.37
2022-09-15T05:09:43.492Z,3.22
2022-09-15T05:12:10.481Z,3.03
2022-09-15T05:14:37.475Z,3.50
2022-09-15T05:17:04.772Z,2.75
2022-09-15T05:19:32.081Z,3.28
2022-09-15T05:21:59.072Z,3.00
2022-09-15T05:24:26.447Z,3.30
2022-09-15T05:26:53.433Z,2.85
2022-09-15T05:29:20.631Z,2.90
2022-09-15T05:31:47.959Z,3.15
2022-09-15T05:34:15.396Z,2.85
2022-09-15T05:36:42.384Z,2.90
2022-09-15T05:39:09.739Z,3.15
2022-09-15T05:41:36.704Z,2.95
2022-09-15T05:44:03.895Z,2.72
2022-09-15T05:46:31.379Z,2.90
2022-09-15T05:48:59.141Z,2.85
2022-09-15T05:51:26.270Z,2.90
2022-09-15T05:53:53.595Z,3.37
2022-09-15T05:56:20.760Z,2.80
2022-09-15T05:58:48.755Z,3.15
2022-09-15T06:01:24.279Z,3.17
2022-09-15T06:03:52.806Z,3.50
2022-09-15T06:06:21.784Z,5.10
2022-09-15T06:08:55.600Z,2.92
2022-09-15T06:11:28.970Z,2.95
2022-09-15T06:13:58.907Z,4.43
2022-09-15T06:16:26.779Z,3.00
2022-09-15T06:18:54.309Z,3.45
2022-09-15T06:21:23.932Z,3.37
2022-09-15T06:23:55.922Z,4.05
2022-09-15T06:26:23.706Z,4.18
2022-09-15T06:28:53.437Z,3.45
2022-09-15T06:31:21.894Z,3.28
2022-09-15T06:33:51.806Z,3.20
2022-09-15T06:36:20.664Z,3.53
2022-09-15T06:38:48.510Z,2.55
2022-09-15T06:41:15.880Z,2.65
2022-09-15T06:43:42.998Z,2.78
2022-09-15T06:46:15.653Z,2.65
2022-09-15T06:48:47.437Z,2.75
2022-09-15T06:51:17.189Z,2.80
2022-09-15T06:53:45.200Z,3.12
2022-09-15T06:56:17.019Z,2.78
2022-09-15T06:58:45.314Z,2.50
2022-09-15T07:01:15.293Z,2.58
2022-09-15T07:03:44.098Z,2.45
2022-09-15T07:06:14.820Z,2.47
2022-09-15T07:08:42.410Z,2.62
2022-09-15T07:11:10.356Z,2.60
2022-09-15T07:13:37.862Z,2.83
2022-09-15T07:16:07.221Z,2.42
2022-09-15T07:18:37.564Z,2.87
2022-09-15T07:21:10.124Z,4.10
2022-09-15T07:23:37.220Z,2.22
2022-09-15T07:26:13.151Z,2.62
2022-09-15T07:28:42.370Z,2.28
2022-09-15T07:31:11.724Z,2.40
2022-09-15T07:33:38.772Z,2.05
2022-09-15T07:36:07.707Z,2.53
2022-09-15T07:38:35.850Z,2.60
2022-09-15T07:41:07.792Z,3.03
2022-09-15T07:43:35.338Z,2.40
2022-09-15T07:46:03.255Z,2.70
2022-09-15T07:48:30.513Z,2.50
2022-09-15T07:50:59.836Z,2.15
2022-09-15T07:53:30.455Z,2.50
2022-09-15T07:55:57.752Z,2.10
2022-09-15T07:58:25.306Z,2.35
2022-09-15T08:00:52.551Z,2.10
2022-09-15T08:03:20.010Z,1.90
2022-09-15T08:05:47.060Z,1.80
2022-09-15T08:08:14.146Z,1.65
2022-09-15T08:10:41.799Z,1.85
2022-09-15T08:13:09.006Z,1.98
2022-09-15T08:15:39.197Z,1.70
2022-09-15T08:18:06.527Z,1.95
2022-09-15T08:20:33.696Z,1.70
2022-09-15T08:23:00.773Z,1.90
2022-09-15T08:25:28.180Z,1.30
2022-09-15T08:27:56.391Z,1.60
2022-09-15T08:30:23.877Z,1.55
2022-09-15T08:32:51.221Z,1.35
2022-09-15T08:35:19.046Z,1.35
2022-09-15T08:37:46.921Z,1.30
2022-09-15T08:40:34.962Z,1.35
2022-09-15T08:43:13.205Z,1.35
2022-09-15T08:45:52.287Z,1.27
2022-09-15T08:48:24.706Z,1.80
2022-09-15T08:50:53.323Z,1.10
2022-09-15T08:53:24.353Z,1.37
2022-09-15T08:56:09.359Z,1.10
2022-09-15T08:58:37.728Z,1.12
2022-09-15T09:01:11.011Z,1.10
2022-09-15T09:03:44.875Z,1.00
2022-09-15T09:06:15.093Z,1.10
2022-09-15T09:08:48.273Z,1.12
2022-09-15T09:11:24.533Z,1.15
2022-09-15T09:13:54.628Z,1.17
2022-09-15T09:16:46.982Z,1.23
2022-09-15T09:19:35.991Z,0.95
2022-09-15T09:22:24.539Z,0.88
2022-09-15T09:24:53.682Z,0.68
2022-09-15T09:27:24.463Z,0.80
2022-09-15T09:30:12.892Z,0.95
2022-09-15T09:32:48.060Z,0.80
2022-09-15T09:35:43.892Z,0.62
2022-09-15T09:38:41.312Z,0.80
2022-09-15T09:41:13.957Z,0.90
2022-09-15T09:43:43.105Z,0.80
2022-09-15T09:46:15.046Z,0.80
2022-09-15T09:49:19.060Z,0.70
2022-09-15T09:51:52.210Z,0.60
2022-09-15T09:56:49.513Z,2.87
2022-09-15T09:59:34.975Z,0.90
2022-09-15T10:02:10.074Z,1.08
2022-09-15T10:04:39.032Z,0.80
2022-09-15T10:07:06.622Z,1.02
2022-09-15T10:09:33.706Z,1.00
2022-09-15T10:12:02.136Z,1.25
2022-09-15T10:14:39.898Z,1.12
2022-09-15T10:17:15.113Z,1.17
2022-09-15T10:19:59.772Z,1.10
2022-09-15T10:22:27.135Z,1.73
2022-09-15T10:24:54.495Z,1.10
2022-09-15T10:27:30.684Z,1.05
2022-09-15T10:30:18.278Z,1.25
2022-09-15T10:32:45.359Z,1.00
2022-09-15T10:35:15.237Z,0.90
2022-09-15T10:37:57.337Z,1.30
2022-09-15T10:40:35.543Z,1.12
2022-09-15T10:43:19.562Z,1.25
2022-09-15T10:45:48.958Z,1.42
2022-09-15T10:48:40.869Z,1.10
2022-09-15T10:51:52.089Z,1.30
2022-09-15T10:54:38.268Z,1.40
2022-09-15T10:57:17.023Z,1.70
2022-09-15T11:00:06.696Z,1.52
2022-09-15T11:03:11.807Z,2.30
2022-09-15T11:06:06.686Z,1.92
2022-09-15T11:08:39.638Z,2.05
2022-09-15T11:11:30.665Z,1.80
2022-09-15T11:14:22.495Z,1.98
2022-09-15T11:16:49.501Z,2.15
2022-09-15T11:19:17.311Z,1.70
2022-09-15T11:21:56.559Z,1.92
2022-09-15T11:24:29.602Z,2.85
2022-09-15T11:27:14.426Z,2.15
2022-09-15T11:29:48.033Z,1.83
2022-09-15T11:33:07.157Z,1.87
2022-09-15T11:35:56.830Z,1.87
2022-09-15T11:38:31.507Z,2.30
2022-09-15T11:41:16.168Z,2.08
2022-09-15T11:43:50.875Z,2.37
2022-09-15T11:46:23.861Z,2.17
2022-09-15T11:49:14.213Z,2.33
2022-09-15T11:51:50.723Z,2.25
2022-09-15T11:54:23.098Z,2.40
2022-09-15T11:56:51.490Z,2.00
2022-09-15T11:59:28.946Z,1.73
2022-09-15T12:02:35.822Z,1.90
2022-09-15T12:05:19.403Z,2.40
2022-09-15T12:08:04.997Z,1.60
2022-09-15T12:10:44.221Z,1.90
2022-09-15T12:13:17.256Z,1.83
2022-09-15T12:15:46.559Z,1.95
2022-09-15T12:18:39.036Z,1.67
2022-09-15T12:21:34.053Z,1.75
2022-09-15T12:24:16.479Z,2.00
2022-09-15T12:26:46.469Z,1.77
2022-09-15T12:29:22.571Z,2.08
2022-09-15T12:32:20.322Z,1.87
2022-09-15T12:34:59.359Z,1.70
2022-09-15T12:37:37.351Z,2.20
2022-09-15T12:40:25.612Z,2.10
2022-09-15T12:42:52.992Z,2.00
2022-09-15T12:45:25.022Z,1.45
2022-09-15T12:47:55.590Z,1.35
2022-09-15T12:50:31.803Z,1.10
2022-09-15T12:53:12.980Z,0.70
2022-09-15T12:55:50.011Z,1.52
2022-09-15T12:58:20.780Z,0.82
2022-09-15T13:01:14.272Z,1.33
2022-09-15T13:03:41.320Z,1.30
2022-09-15T13:06:21.586Z,3.85
2022-09-15T13:08:53.167Z,7.35
2022-09-15T13:11:25.515Z,2.00
2022-09-15T13:14:07.910Z,1.30
2022-09-15T13:16:39.390Z,1.15
2022-09-15T13:19:29.687Z,1.20
2022-09-15T13:22:11.865Z,0.90
2022-09-15T13:24:45.407Z,1.00
2022-09-15T13:27:17.201Z,1.05
2022-09-15T13:30:03.927Z,0.95
2022-09-15T13:33:18.576Z,1.27
2022-09-15T13:35:52.122Z,0.98
2022-09-15T13:38:30.738Z,1.10
2022-09-15T13:41:34.132Z,0.68
2022-09-15T13:44:23.199Z,0.62
2022-09-15T13:46:53.464Z,0.70
2022-09-15T13:49:50.501Z,0.93
2022-09-15T13:52:23.427Z,0.90
2022-09-15T13:55:10.304Z,0.75
2022-09-15T14:00:34.889Z,1.00
2022-09-15T14:03:16.387Z,0.90
2022-09-15T14:05:44.713Z,0.80
2022-09-15T14:08:22.587Z,0.90
2022-09-15T14:10:58.578Z,1.02
2022-09-15T14:13:27.613Z,1.02
2022-09-15T14:16:11.789Z,1.10
2022-09-15T14:18:44.601Z,1.20
2022-09-15T14:21:23.335Z,1.10
2022-09-15T14:23:52.561Z,1.42
2022-09-15T14:26:22.717Z,2.55
2022-09-15T14:29:05.076Z,3.25
2022-09-15T14:31:40.352Z,3.47
2022-09-15T14:34:35.061Z,3.92
2022-09-15T14:37:28.881Z,4.65
2022-09-15T14:39:58.620Z,4.30
2022-09-15T14:42:32.495Z,4.87
2022-09-15T14:48:01.108Z,3.12
2022-09-15T14:50:32.478Z,2.85
2022-09-15T14:53:24.797Z,3.03
2022-09-15T14:56:07.694Z,2.97
2022-09-15T14:58:50.533Z,2.80
2022-09-15T15:01:31.742Z,3.03
2022-09-15T15:04:28.154Z,2.92
2022-09-15T15:07:25.379Z,2.72
2022-09-15T15:10:07.914Z,2.40
2022-09-15T15:12:37.754Z,2.47
2022-09-15T15:15:06.020Z,3.55
2022-09-15T15:17:35.796Z,2.90
2022-09-15T15:20:14.991Z,2.47
2022-09-15T15:22:43.720Z,2.00
2022-09-15T15:25:27.542Z,2.08
2022-09-15T15:30:29.705Z,2.60
2022-09-15T15:33:04.868Z,2.30
2022-09-15T15:35:33.387Z,2.37
2022-09-15T15:38:03.509Z,2.42
2022-09-15T15:40:30.895Z,2.50
2022-09-15T15:43:04.242Z,2.85
2022-09-15T15:45:34.013Z,3.28
2022-09-15T15:48:03.101Z,2.75
2022-09-15T15:50:32.734Z,2.60
2022-09-15T15:53:00.918Z,2.10
2022-09-15T15:55:46.235Z,2.37
2022-09-15T15:58:14.386Z,2.90
2022-09-15T16:00:47.197Z,2.83
2022-09-15T16:03:15.825Z,2.67
2022-09-15T16:05:47.967Z,2.47
2022-09-15T16:08:20.610Z,2.20
2022-09-15T16:10:48.729Z,2.12
2022-09-15T16:13:17.617Z,2.25
2022-09-15T16:15:45.276Z,2.00
2022-09-15T16:18:13.054Z,2.22
2022-09-15T16:20:41.361Z,2.85
2022-09-15T16:23:14.073Z,2.28
2022-09-15T16:25:56.339Z,2.30
2022-09-15T16:28:23.381Z,2.17
2022-09-15T16:30:50.703Z,2.12
2022-09-15T16:33:19.024Z,3.33
2022-09-15T16:35:51.230Z,3.80
2022-09-15T16:38:20.153Z,3.70
2022-09-15T16:40:51.284Z,3.80
2022-09-15T16:43:21.612Z,4.30
2022-09-15T16:45:49.800Z,3.62
2022-09-15T16:48:17.265Z,3.00
2022-09-15T16:51:01.696Z,3.30
2022-09-15T16:53:33.606Z,3.30
2022-09-15T16:56:01.070Z,2.70
2022-09-15T16:58:28.504Z,3.53
2022-09-15T17:00:56.632Z,7.43
2022-09-15T17:03:25.745Z,11.40
2022-09-15T17:05:54.943Z,13.57
2022-09-15T17:08:25.699Z,11.18
2022-09-15T17:10:53.519Z,16.95
2022-09-15T17:13:25.169Z,13.77
2022-09-15T17:15:55.273Z,10.27
2022-09-15T17:18:22.883Z,10.13
2022-09-15T17:20:50.798Z,10.30
2022-09-15T17:23:23.465Z,4.65
2022-09-15T17:25:57.465Z,3.35
2022-09-15T17:28:31.120Z,2.65
2022-09-15T17:30:59.988Z,2.62
2022-09-15T17:33:29.017Z,2.22
2022-09-15T17:35:56.082Z,2.20
2022-09-15T17:38:23.597Z,1.90
2022-09-15T17:40:51.830Z,1.95
2022-09-15T17:43:21.550Z,1.50
2022-09-15T17:45:49.335Z,1.70
2022-09-15T17:48:16.834Z,1.50
2022-09-15T17:50:45.306Z,1.90
2022-09-15T17:53:23.523Z,2.20
2022-09-15T17:55:51.199Z,3.10
2022-09-15T17:58:18.789Z,3.10
2022-09-15T18:00:46.929Z,3.87
2022-09-15T18:03:24.707Z,3.20
2022-09-15T18:05:52.225Z,3.78
2022-09-15T18:08:19.575Z,3.50
2022-09-15T18:10:47.067Z,3.78
2022-09-15T18:13:17.047Z,3.90
2022-09-15T18:15:44.519Z,3.95
2022-09-15T18:18:17.315Z,3.85
2022-09-15T18:20:45.448Z,3.50
2022-09-15T18:23:14.397Z,3.80
2022-09-15T18:25:41.966Z,3.20
2022-09-15T18:28:09.965Z,3.40
2022-09-15T18:30:41.872Z,3.50
2022-09-15T18:33:25.572Z,3.28
2022-09-15T18:35:56.091Z,3.10
2022-09-15T18:38:23.606Z,2.80
2022-09-15T18:40:56.050Z,3.33
2022-09-15T18:43:25.457Z,3.20
2022-09-15T18:45:55.132Z,3.10
2022-09-15T18:48:22.223Z,3.40
2022-09-15T18:50:49.729Z,3.03
2022-09-15T18:53:16.787Z,3.60
2022-09-15T18:55:43.842Z,3.33
2022-09-15T18:58:11.629Z,3.45
2022-09-15T19:00:39.140Z,2.80
2022-09-15T19:03:09.307Z,2.90
2022-09-15T19:05:37.248Z,3.10
2022-09-15T19:08:04.566Z,2.72
2022-09-15T19:10:32.468Z,2.97
2022-09-15T19:12:59.771Z,2.90
2022-09-15T19:15:29.344Z,2.47
2022-09-15T19:17:56.401Z,2.53
2022-09-15T19:20:23.760Z,3.03
2022-09-15T19:22:51.639Z,2.25
2022-09-15T19:25:18.945Z,2.47
2022-09-15T19:27:47.868Z,2.30
2022-09-15T19:30:15.171Z,2.22
2022-09-15T19:32:42.191Z,2.50
2022-09-15T19:35:11.279Z,2.37
2022-09-15T19:37:40.575Z,2.55
2022-09-15T19:40:10.480Z,2.78
2022-09-15T19:42:38.607Z,2.85
2022-09-15T19:45:06.801Z,3.42
2022-09-15T19:47:34.224Z,3.25
2022-09-15T19:50:01.813Z,2.58
2022-09-15T19:52:28.929Z,3.17
2022-09-15T19:54:55.928Z,3.17
2022-09-15T19:57:23.611Z,2.90
2022-09-15T19:59:50.813Z,3.08
2022-09-15T20:02:17.907Z,2.83
2022-09-15T20:04:45.329Z,3.45
2022-09-15T20:07:12.659Z,2.72
2022-09-15T20:09:39.891Z,2.10
2022-09-15T20:12:07.499Z,2.45
2022-09-15T20:14:34.616Z,2.70
2022-09-15T20:17:01.886Z,2.45
2022-09-15T20:19:29.960Z,2.67
2022-09-15T20:21:56.969Z,2.37
2022-09-15T20:24:26.872Z,2.78
2022-09-15T20:26:54.445Z,2.72
2022-09-15T20:29:21.508Z,2.53
2022-09-15T20:31:48.669Z,2.65
2022-09-15T20:34:16.766Z,2.45
2022-09-15T20:36:44.487Z,3.83
2022-09-15T20:39:14.515Z,2.65
2022-09-15T20:41:45.166Z,2.72
2022-09-15T20:44:15.124Z,3.03
2022-09-15T20:46:42.398Z,2.65
2022-09-15T20:49:10.445Z,2.80
2022-09-15T20:51:37.473Z,2.60
2022-09-15T20:54:05.318Z,2.40
2022-09-15T20:56:35.130Z,2.75
2022-09-15T20:59:04.111Z,2.92
2022-09-15T21:01:41.187Z,3.10
2022-09-15T21:04:09.653Z,3.28
2022-09-15T21:06:37.552Z,3.08
2022-09-15T21:09:05.193Z,3.30
2022-09-15T21:11:32.478Z,3.15
2022-09-15T21:13:59.809Z,2.97
2022-09-15T21:16:28.380Z,3.75
2022-09-15T21:18:56.851Z,3.25
2022-09-15T21:21:26.987Z,3.00
2022-09-15T21:24:05.115Z,3.20
2022-09-15T21:26:34.701Z,3.60
2022-09-15T21:29:02.267Z,3.75
2022-09-15T21:31:31.929Z,3.85
2022-09-15T21:33:59.885Z,4.05
2022-09-15T21:36:29.612Z,3.95
2022-09-15T21:38:58.252Z,4.95
2022-09-15T21:41:27.568Z,5.05
2022-09-15T21:43:55.372Z,5.00
2022-09-15T21:46:24.757Z,5.60
2022-09-15T21:48:52.474Z,5.05
2022-09-15T21:51:24.568Z,5.32
2022-09-15T21:53:54.536Z,5.33
2022-09-15T21:56:22.296Z,5.40
2022-09-15T21:58:49.380Z,5.30
2022-09-15T22:01:19.294Z,5.45
2022-09-15T22:03:52.430Z,5.68
2022-09-15T22:06:21.471Z,5.60
2022-09-15T22:08:49.026Z,5.65
2022-09-15T22:11:16.114Z,5.25
2022-09-15T22:13:44.691Z,5.90
2022-09-15T22:16:24.984Z,5.50
2022-09-15T22:18:52.564Z,5.57
2022-09-15T22:21:22.299Z,5.87
2022-09-15T22:23:50.261Z,6.03
2022-09-15T22:26:26.204Z,6.03
2022-09-15T22:28:54.168Z,6.75
2022-09-15T22:31:22.491Z,6.28
2022-09-15T22:33:49.839Z,7.53
2022-09-15T22:36:19.411Z,6.80
2022-09-15T22:38:46.924Z,6.95
2022-09-15T22:41:18.724Z,7.55
2022-09-15T22:43:48.098Z,7.47
2022-09-15T22:46:17.049Z,7.53
2022-09-15T22:48:44.202Z,7.28
2022-09-15T22:51:12.194Z,7.93
2022-09-15T22:53:39.387Z,7.87
2022-09-15T22:56:19.907Z,7.85
2022-09-15T22:58:48.736Z,6.60
2022-09-15T23:01:18.559Z,7.18
2022-09-15T23:03:49.866Z,7.85
2022-09-15T23:06:17.292Z,7.37
2022-09-15T23:08:44.605Z,7.30
2022-09-15T23:11:13.159Z,7.20
2022-09-15T23:13:41.226Z,7.32
2022-09-15T23:16:08.998Z,6.70
2022-09-15T23:18:36.609Z,7.03
2022-09-15T23:21:08.723Z,6.65
2022-09-15T23:23:37.781Z,6.55
2022-09-15T23:26:09.982Z,6.93
2022-09-15T23:28:37.561Z,7.07
2022-09-15T23:31:05.238Z,6.37
2022-09-15T23:33:32.563Z,6.70
2022-09-15T23:36:00.483Z,7.25
2022-09-15T23:38:28.070Z,8.05
2022-09-15T23:40:55.041Z,7.62
2022-09-15T23:43:22.038Z,8.25
2022-09-15T23:45:51.133Z,8.23
2022-09-15T23:48:18.165Z,8.07
2022-09-15T23:50:45.208Z,8.63
2022-09-15T23:53:12.944Z,7.95
2022-09-15T23:55:39.962Z,7.28
2022-09-15T23:58:07.180Z,8.40
